Time;durP1;ratioP1;P1;durP2;ratioP2;P2;SDS_P1;SDS_P2;PMS_P1;PMS_P2;Temp;Humidity;BMP_temperature;BMP_pressure;BME280_temperature;BME280_humidity;BME280_pressure;Samples;Min_cycle;Max_cycle;Signal;HPM_P1;HPM_P2
2023/05/04 00:02:23;;;;;;;68.10;57.70;;;;;;;-128.00;-1.00;-1.00;105783;1251;1004527;-70
2023/05/04 00:04:53;;;;;;;67.40;58.50;;;;;;;-128.00;-1.00;-1.00;105777;1253;1005026;-70
2023/05/04 00:07:19;;;;;;;67.10;58.40;;;;;;;-128.00;-1.00;-1.00;105771;1251;1055741;-70
2023/05/04 00:09:46;;;;;;;71.90;59.60;;;;;;;-128.00;-1.00;-1.00;105743;1251;1004047;-71
2023/05/04 00:12:12;;;;;;;67.80;58.70;;;;;;;-128.00;-1.00;-1.00;105742;1251;1004704;-70
2023/05/04 00:14:39;;;;;;;70.50;61.00;;;;;;;-128.00;-1.00;-1.00;105803;1251;1003417;-70
2023/05/04 00:17:06;;;;;;;68.70;60.40;;;;;;;-128.00;-1.00;-1.00;105789;1251;1004347;-70
2023/05/04 00:19:34;;;;;;;70.50;59.80;;;;;;;-128.00;-1.00;-1.00;105819;1251;1004318;-70
2023/05/04 00:22:01;;;;;;;71.90;61.00;;;;;;;-128.00;-1.00;-1.00;105770;1251;1003579;-71
2023/05/04 00:24:28;;;;;;;70.80;61.10;;;;;;;-128.00;-1.00;-1.00;105731;1253;1004546;-71
2023/05/04 00:26:54;;;;;;;67.30;58.70;;;;;;;-128.00;-1.00;-1.00;105762;1251;1003758;-72
2023/05/04 00:29:21;;;;;;;68.80;58.30;;;;;;;-128.00;-1.00;-1.00;105756;1251;1003780;-71
2023/05/04 00:31:48;;;;;;;69.50;58.40;;;;;;;-128.00;-1.00;-1.00;105730;1253;1003900;-71
2023/05/04 00:34:14;;;;;;;64.00;56.80;;;;;;;-128.00;-1.00;-1.00;105790;1251;1003817;-71
2023/05/04 00:36:41;;;;;;;67.80;59.10;;;;;;;-128.00;-1.00;-1.00;105718;1250;1004233;-71
2023/05/04 00:39:08;;;;;;;68.30;58.60;;;;;;;-128.00;-1.00;-1.00;105626;1251;1003308;-71
2023/05/04 00:41:34;;;;;;;66.20;58.50;;;;;;;-128.00;-1.00;-1.00;105795;1251;1004326;-71
2023/05/04 00:44:03;;;;;;;66.70;58.90;;;;;;;-128.00;-1.00;-1.00;105747;1252;1004555;-71
2023/05/04 00:46:30;;;;;;;63.00;56.10;;;;;;;-128.00;-1.00;-1.00;105714;1251;1059032;-71
2023/05/04 00:48:58;;;;;;;66.50;56.60;;;;;;;-128.00;-1.00;-1.00;105777;1251;1006274;-71
2023/05/04 00:51:25;;;;;;;59.60;52.70;;;;;;;-128.00;-1.00;-1.00;105629;1254;1004116;-71
2023/05/04 00:53:56;;;;;;;60.30;52.60;;;;;;;-128.00;-1.00;-1.00;105672;1251;1004824;-70
2023/05/04 00:56:24;;;;;;;59.80;52.10;;;;;;;-128.00;-1.00;-1.00;105677;1252;1056333;-70
2023/05/04 00:58:53;;;;;;;58.90;51.50;;;;;;;-128.00;-1.00;-1.00;105779;1251;1003823;-71
2023/05/04 01:01:22;;;;;;;59.30;51.60;;;;;;;-128.00;-1.00;-1.00;105673;1251;1045848;-71
2023/05/04 01:03:50;;;;;;;59.30;50.30;;;;;;;-128.00;-1.00;-1.00;105770;1251;1047132;-71
2023/05/04 01:06:34;;;;;;;57.30;48.00;;;;;;;-128.00;-1.00;-1.00;105777;1251;1004980;-71
2023/05/04 01:09:10;;;;;;;56.00;45.50;;;;;;;-128.00;-1.00;-1.00;105810;1254;1055872;-71
2023/05/04 01:11:45;;;;;;;58.30;47.30;;;;;;;-128.00;-1.00;-1.00;105721;1251;1060232;-71
2023/05/04 01:14:13;;;;;;;55.10;47.30;;;;;;;-128.00;-1.00;-1.00;105758;1251;1046056;-70
2023/05/04 01:16:40;;;;;;;55.80;49.00;;;;;;;-128.00;-1.00;-1.00;105722;1251;1004430;-70
2023/05/04 01:19:06;;;;;;;61.30;52.30;;;;;;;-128.00;-1.00;-1.00;105827;1251;1005166;-70
2023/05/04 01:21:34;;;;;;;59.50;50.00;;;;;;;-128.00;-1.00;-1.00;105781;1251;1005020;-71
2023/05/04 01:24:00;;;;;;;57.20;49.90;;;;;;;-128.00;-1.00;-1.00;105719;1251;1004496;-71
2023/05/04 01:26:31;;;;;;;62.10;51.00;;;;;;;-128.00;-1.00;-1.00;105736;1251;1004809;-71
2023/05/04 01:29:10;;;;;;;56.80;47.60;;;;;;;-128.00;-1.00;-1.00;105715;1251;1048834;-70
2023/05/04 01:31:38;;;;;;;55.10;46.00;;;;;;;-128.00;-1.00;-1.00;105753;1251;1061509;-70
2023/05/04 01:34:07;;;;;;;52.90;44.90;;;;;;;-128.00;-1.00;-1.00;105749;1251;1004390;-70
2023/05/04 01:36:34;;;;;;;56.40;45.40;;;;;;;-128.00;-1.00;-1.00;105724;1254;1058740;-70
2023/05/04 01:39:02;;;;;;;54.50;47.10;;;;;;;-128.00;-1.00;-1.00;105786;1253;1004057;-70
2023/05/04 01:41:31;;;;;;;54.80;45.10;;;;;;;-128.00;-1.00;-1.00;105780;1253;1003716;-70
2023/05/04 01:43:58;;;;;;;50.30;43.40;;;;;;;-128.00;-1.00;-1.00;105761;1251;1061994;-70
2023/05/04 01:46:24;;;;;;;49.70;42.80;;;;;;;-128.00;-1.00;-1.00;105605;1251;1004111;-71
2023/05/04 01:48:51;;;;;;;50.60;45.00;;;;;;;-128.00;-1.00;-1.00;105774;1253;1004303;-71
2023/05/04 01:51:18;;;;;;;57.90;46.60;;;;;;;-128.00;-1.00;-1.00;105754;1251;1004230;-71
2023/05/04 01:53:45;;;;;;;52.60;46.50;;;;;;;-128.00;-1.00;-1.00;105792;1251;1004013;-71
2023/05/04 01:56:12;;;;;;;51.70;45.50;;;;;;;-128.00;-1.00;-1.00;105770;1251;1003830;-71
2023/05/04 01:58:39;;;;;;;54.00;45.60;;;;;;;-128.00;-1.00;-1.00;105739;1254;1004712;-71
2023/05/04 02:01:05;;;;;;;54.00;46.90;;;;;;;-128.00;-1.00;-1.00;105731;1251;1004500;-70
2023/05/04 02:03:32;;;;;;;55.60;46.10;;;;;;;-128.00;-1.00;-1.00;105749;1251;1004055;-70
2023/05/04 02:05:59;;;;;;;49.40;43.30;;;;;;;-128.00;-1.00;-1.00;105741;1251;1004545;-71
2023/05/04 02:08:25;;;;;;;52.50;45.40;;;;;;;-128.00;-1.00;-1.00;105779;1251;1004894;-71
2023/05/04 02:10:52;;;;;;;50.40;42.60;;;;;;;-128.00;-1.00;-1.00;105746;1254;1003559;-71
2023/05/04 02:13:18;;;;;;;47.90;41.90;;;;;;;-128.00;-1.00;-1.00;105737;1251;1003845;-71
2023/05/04 02:15:45;;;;;;;43.90;39.20;;;;;;;-128.00;-1.00;-1.00;105769;1251;1004647;-71
2023/05/04 02:18:11;;;;;;;52.80;44.20;;;;;;;-128.00;-1.00;-1.00;105818;1251;1004128;-71
2023/05/04 02:20:38;;;;;;;52.40;43.10;;;;;;;-128.00;-1.00;-1.00;105739;1251;1003523;-71
2023/05/04 02:23:04;;;;;;;52.70;44.90;;;;;;;-128.00;-1.00;-1.00;105776;1251;1003811;-71
2023/05/04 02:25:31;;;;;;;56.10;47.40;;;;;;;-128.00;-1.00;-1.00;105700;1251;1005191;-71
2023/05/04 02:27:57;;;;;;;56.20;48.00;;;;;;;-128.00;-1.00;-1.00;105752;1251;1003570;-70
2023/05/04 02:30:23;;;;;;;54.20;47.00;;;;;;;-128.00;-1.00;-1.00;105722;1253;1004122;-70
2023/05/04 02:32:50;;;;;;;52.10;45.60;;;;;;;-128.00;-1.00;-1.00;105767;1251;1003937;-69
2023/05/04 02:35:16;;;;;;;54.40;45.30;;;;;;;-128.00;-1.00;-1.00;105769;1251;1004916;-70
2023/05/04 02:37:43;;;;;;;55.50;48.10;;;;;;;-128.00;-1.00;-1.00;105748;1251;1003948;-71
2023/05/04 02:40:10;;;;;;;54.20;47.50;;;;;;;-128.00;-1.00;-1.00;105745;1251;1005464;-71
2023/05/04 02:42:37;;;;;;;57.00;47.50;;;;;;;-128.00;-1.00;-1.00;105764;1251;1004258;-71
2023/05/04 02:45:06;;;;;;;54.90;47.30;;;;;;;-128.00;-1.00;-1.00;105743;1251;1003658;-70
2023/05/04 02:47:33;;;;;;;61.30;54.80;;;;;;;-128.00;-1.00;-1.00;105601;1251;1056257;-71
2023/05/04 02:49:59;;;;;;;64.50;55.60;;;;;;;-128.00;-1.00;-1.00;105607;1252;1004434;-71
2023/05/04 02:52:26;;;;;;;56.30;49.70;;;;;;;-128.00;-1.00;-1.00;105745;1254;1003797;-70
2023/05/04 02:54:52;;;;;;;58.40;49.30;;;;;;;-128.00;-1.00;-1.00;105776;1252;1004063;-70
2023/05/04 02:57:19;;;;;;;60.20;49.50;;;;;;;-128.00;-1.00;-1.00;105748;1256;1004001;-70
2023/05/04 02:59:45;;;;;;;55.50;48.30;;;;;;;-128.00;-1.00;-1.00;105759;1251;1004514;-71
2023/05/04 03:02:12;;;;;;;54.00;47.90;;;;;;;-128.00;-1.00;-1.00;105735;1254;1003689;-71
2023/05/04 03:04:38;;;;;;;54.70;47.50;;;;;;;-128.00;-1.00;-1.00;105731;1251;1003978;-70
2023/05/04 03:07:05;;;;;;;59.80;51.70;;;;;;;-128.00;-1.00;-1.00;105749;1254;1004526;-70
2023/05/04 03:09:31;;;;;;;56.40;49.60;;;;;;;-128.00;-1.00;-1.00;105758;1251;1003984;-71
2023/05/04 03:11:58;;;;;;;54.40;48.10;;;;;;;-128.00;-1.00;-1.00;105573;1251;1004248;-71
2023/05/04 03:14:25;;;;;;;51.40;45.90;;;;;;;-128.00;-1.00;-1.00;105728;1251;1003716;-71
2023/05/04 03:16:51;;;;;;;55.30;49.20;;;;;;;-128.00;-1.00;-1.00;105737;1251;1004294;-71
2023/05/04 03:19:18;;;;;;;49.40;43.90;;;;;;;-128.00;-1.00;-1.00;105707;1254;1004146;-70
2023/05/04 03:21:45;;;;;;;52.30;46.40;;;;;;;-128.00;-1.00;-1.00;105766;1255;1004014;-71
2023/05/04 03:24:12;;;;;;;54.60;46.00;;;;;;;-128.00;-1.00;-1.00;105759;1250;1003461;-71
2023/05/04 03:26:38;;;;;;;54.50;48.60;;;;;;;-128.00;-1.00;-1.00;105763;1251;1004353;-71
2023/05/04 03:29:05;;;;;;;53.10;47.20;;;;;;;-128.00;-1.00;-1.00;105724;1251;1003488;-71
2023/05/04 03:31:31;;;;;;;49.90;44.50;;;;;;;-128.00;-1.00;-1.00;105789;1251;1004337;-71
2023/05/04 03:33:58;;;;;;;46.50;41.10;;;;;;;-128.00;-1.00;-1.00;105732;1251;1003966;-70
2023/05/04 03:36:24;;;;;;;46.30;41.30;;;;;;;-128.00;-1.00;-1.00;105743;1252;1005351;-71
2023/05/04 03:38:51;;;;;;;46.00;41.10;;;;;;;-128.00;-1.00;-1.00;105706;1255;1004642;-72
2023/05/04 03:41:17;;;;;;;49.40;42.20;;;;;;;-128.00;-1.00;-1.00;105728;1251;1004068;-69
2023/05/04 03:43:44;;;;;;;43.60;39.00;;;;;;;-128.00;-1.00;-1.00;105753;1256;1003428;-70
2023/05/04 03:46:10;;;;;;;41.30;37.10;;;;;;;-128.00;-1.00;-1.00;105784;1251;1004918;-71
2023/05/04 03:48:38;;;;;;;37.60;33.50;;;;;;;-128.00;-1.00;-1.00;105757;1251;1003683;-70
2023/05/04 03:51:05;;;;;;;38.70;34.80;;;;;;;-128.00;-1.00;-1.00;105736;1251;1004371;-70
2023/05/04 03:53:34;;;;;;;36.50;32.80;;;;;;;-128.00;-1.00;-1.00;105715;1251;1003386;-70
2023/05/04 03:56:01;;;;;;;34.30;31.00;;;;;;;-128.00;-1.00;-1.00;105594;1251;1046862;-70
2023/05/04 03:58:28;;;;;;;33.00;29.70;;;;;;;-128.00;-1.00;-1.00;105778;1251;1004708;-70
2023/05/04 04:00:54;;;;;;;29.60;26.80;;;;;;;-128.00;-1.00;-1.00;105780;1251;1004209;-70
2023/05/04 04:03:21;;;;;;;30.70;27.90;;;;;;;-128.00;-1.00;-1.00;105718;1251;1005041;-72
2023/05/04 04:05:47;;;;;;;35.10;31.90;;;;;;;-128.00;-1.00;-1.00;105720;1251;1003517;-71
2023/05/04 04:08:14;;;;;;;32.50;29.60;;;;;;;-128.00;-1.00;-1.00;105772;1251;1003902;-71
2023/05/04 04:10:41;;;;;;;31.10;28.10;;;;;;;-128.00;-1.00;-1.00;105748;1251;1004647;-71
2023/05/04 04:13:07;;;;;;;30.80;28.00;;;;;;;-128.00;-1.00;-1.00;105741;1256;1004140;-72
2023/05/04 04:15:34;;;;;;;33.10;29.90;;;;;;;-128.00;-1.00;-1.00;105742;1251;1004086;-71
2023/05/04 04:18:00;;;;;;;33.10;29.90;;;;;;;-128.00;-1.00;-1.00;105755;1251;1003310;-71
2023/05/04 04:20:27;;;;;;;33.30;30.30;;;;;;;-128.00;-1.00;-1.00;105596;1251;1003610;-71
2023/05/04 04:22:54;;;;;;;33.10;29.90;;;;;;;-128.00;-1.00;-1.00;105726;1251;1004544;-71
2023/05/04 04:25:20;;;;;;;30.00;27.00;;;;;;;-128.00;-1.00;-1.00;105737;1251;1003438;-71
2023/05/04 04:27:47;;;;;;;30.70;27.50;;;;;;;-128.00;-1.00;-1.00;105762;1251;1004899;-71
2023/05/04 04:30:13;;;;;;;30.30;27.50;;;;;;;-128.00;-1.00;-1.00;105730;1251;1004391;-71
2023/05/04 04:32:40;;;;;;;28.10;25.50;;;;;;;-128.00;-1.00;-1.00;105741;1251;1004704;-72
2023/05/04 04:35:07;;;;;;;27.20;24.50;;;;;;;-128.00;-1.00;-1.00;105714;1251;1004207;-72
2023/05/04 04:37:33;;;;;;;26.90;24.40;;;;;;;-128.00;-1.00;-1.00;105613;1251;1003777;-70
2023/05/04 04:40:00;;;;;;;24.90;22.60;;;;;;;-128.00;-1.00;-1.00;105763;1251;1005183;-71
2023/05/04 04:42:26;;;;;;;25.10;22.70;;;;;;;-128.00;-1.00;-1.00;105743;1251;1003889;-71
2023/05/04 04:44:53;;;;;;;24.30;22.10;;;;;;;-128.00;-1.00;-1.00;105773;1251;1004506;-71
2023/05/04 04:47:19;;;;;;;23.10;21.10;;;;;;;-128.00;-1.00;-1.00;105736;1251;1004192;-71
2023/05/04 04:49:46;;;;;;;21.70;19.50;;;;;;;-128.00;-1.00;-1.00;105723;1251;1003295;-71
2023/05/04 04:52:13;;;;;;;21.30;19.40;;;;;;;-128.00;-1.00;-1.00;105755;1251;1003781;-71
2023/05/04 04:54:40;;;;;;;20.90;18.90;;;;;;;-128.00;-1.00;-1.00;105704;1251;1004657;-71
2023/05/04 04:57:06;;;;;;;22.40;20.30;;;;;;;-128.00;-1.00;-1.00;105725;1251;1003914;-71
2023/05/04 04:59:33;;;;;;;22.30;20.20;;;;;;;-128.00;-1.00;-1.00;105550;1254;1004726;-72
2023/05/04 05:02:00;;;;;;;21.10;19.20;;;;;;;-128.00;-1.00;-1.00;105604;1253;1004898;-71
2023/05/04 05:04:27;;;;;;;19.90;18.00;;;;;;;-128.00;-1.00;-1.00;105552;1253;1004284;-71
2023/05/04 05:06:53;;;;;;;20.10;18.10;;;;;;;-128.00;-1.00;-1.00;105567;1254;1004144;-72
2023/05/04 05:09:20;;;;;;;21.00;18.80;;;;;;;-128.00;-1.00;-1.00;105571;1254;1003825;-72
2023/05/04 05:11:46;;;;;;;20.00;18.10;;;;;;;-128.00;-1.00;-1.00;105599;1254;1003808;-71
2023/05/04 05:14:13;;;;;;;19.30;17.60;;;;;;;-128.00;-1.00;-1.00;105417;1254;1004944;-71
2023/05/04 05:16:39;;;;;;;19.40;17.50;;;;;;;-128.00;-1.00;-1.00;105572;1254;1003923;-71
2023/05/04 05:19:06;;;;;;;20.30;18.20;;;;;;;-128.00;-1.00;-1.00;105463;1255;1004389;-71
2023/05/04 05:21:32;;;;;;;18.90;17.10;;;;;;;-128.00;-1.00;-1.00;105478;1255;1004529;-71
2023/05/04 05:24:00;;;;;;;19.20;17.50;;;;;;;-128.00;-1.00;-1.00;105451;1257;1004615;-71
2023/05/04 05:26:27;;;;;;;19.10;17.20;;;;;;;-128.00;-1.00;-1.00;105487;1255;1003805;-71
2023/05/04 05:28:53;;;;;;;17.10;15.60;;;;;;;-128.00;-1.00;-1.00;105453;1256;1004801;-71
2023/05/04 05:31:20;;;;;;;18.30;16.60;;;;;;;-128.00;-1.00;-1.00;105688;1251;1004811;-71
2023/05/04 05:33:47;;;;;;;19.00;17.20;;;;;;;-128.00;-1.00;-1.00;105726;1251;1004192;-71
2023/05/04 05:36:13;;;;;;;17.70;16.10;;;;;;;-128.00;-1.00;-1.00;105729;1251;1003551;-71
2023/05/04 05:38:39;;;;;;;18.30;16.60;;;;;;;-128.00;-1.00;-1.00;105742;1251;1004838;-71
2023/05/04 05:41:06;;;;;;;19.50;17.50;;;;;;;-128.00;-1.00;-1.00;105567;1251;1004299;-71
2023/05/04 05:43:32;;;;;;;18.10;16.50;;;;;;;-128.00;-1.00;-1.00;105762;1251;1004235;-71
2023/05/04 05:45:59;;;;;;;16.90;15.30;;;;;;;-128.00;-1.00;-1.00;105767;1251;1003746;-71
2023/05/04 05:48:25;;;;;;;18.60;16.90;;;;;;;-128.00;-1.00;-1.00;105793;1250;1004249;-71
2023/05/04 05:50:52;;;;;;;18.00;16.20;;;;;;;-128.00;-1.00;-1.00;105774;1251;1003636;-71
2023/05/04 05:53:19;;;;;;;17.50;15.80;;;;;;;-128.00;-1.00;-1.00;105769;1251;1004143;-80
2023/05/04 05:55:46;;;;;;;19.30;17.20;;;;;;;-128.00;-1.00;-1.00;105720;1251;1004856;-71
2023/05/04 05:58:12;;;;;;;19.50;17.40;;;;;;;-128.00;-1.00;-1.00;105819;1251;1004902;-84
2023/05/04 06:00:39;;;;;;;18.90;17.20;;;;;;;-128.00;-1.00;-1.00;105655;1251;1003964;-79
2023/05/04 06:03:06;;;;;;;17.50;15.90;;;;;;;-128.00;-1.00;-1.00;105739;1251;1003827;-77
2023/05/04 06:05:33;;;;;;;19.50;17.50;;;;;;;-128.00;-1.00;-1.00;105754;1251;1004211;-81
2023/05/04 06:07:59;;;;;;;20.30;18.30;;;;;;;-128.00;-1.00;-1.00;105656;1251;1004741;-81
2023/05/04 06:10:26;;;;;;;19.20;17.30;;;;;;;-128.00;-1.00;-1.00;105666;1251;1004464;-80
2023/05/04 06:12:53;;;;;;;19.30;17.30;;;;;;;-128.00;-1.00;-1.00;105708;1251;1004821;-83
2023/05/04 06:15:19;;;;;;;16.30;14.60;;;;;;;-128.00;-1.00;-1.00;105717;1251;1004384;-84
2023/05/04 06:17:47;;;;;;;17.40;15.40;;;;;;;-128.00;-1.00;-1.00;105696;1251;1004528;-79
2023/05/04 06:20:14;;;;;;;16.30;14.40;;;;;;;-128.00;-1.00;-1.00;105733;1251;1003855;-82
2023/05/04 06:22:41;;;;;;;19.50;14.40;;;;;;;-128.00;-1.00;-1.00;105742;1251;1003920;-80
2023/05/04 06:25:07;;;;;;;17.40;15.80;;;;;;;-128.00;-1.00;-1.00;105683;1251;1003939;-77
2023/05/04 06:27:34;;;;;;;17.30;15.60;;;;;;;-128.00;-1.00;-1.00;105680;1251;1004366;-78
2023/05/04 06:30:00;;;;;;;16.60;15.10;;;;;;;-128.00;-1.00;-1.00;105678;1250;1004662;-83
2023/05/04 06:32:27;;;;;;;16.80;15.20;;;;;;;-128.00;-1.00;-1.00;105708;1251;1004334;-85
2023/05/04 06:34:54;;;;;;;15.80;14.20;;;;;;;-128.00;-1.00;-1.00;105742;1251;1003796;-87
2023/05/04 06:37:21;;;;;;;17.30;15.60;;;;;;;-128.00;-1.00;-1.00;105738;1251;1005001;-86
2023/05/04 06:39:47;;;;;;;17.30;15.50;;;;;;;-128.00;-1.00;-1.00;105714;1251;1004110;-78
2023/05/04 06:42:14;;;;;;;18.10;16.10;;;;;;;-128.00;-1.00;-1.00;105755;1251;1004455;-79
2023/05/04 06:44:40;;;;;;;17.50;15.60;;;;;;;-128.00;-1.00;-1.00;105723;1251;1003980;-73
2023/05/04 06:47:07;;;;;;;16.00;14.40;;;;;;;-128.00;-1.00;-1.00;105789;1251;1005191;-72
2023/05/04 06:49:33;;;;;;;17.30;15.70;;;;;;;-128.00;-1.00;-1.00;105818;1250;1003929;-71
2023/05/04 06:52:00;;;;;;;18.10;16.20;;;;;;;-128.00;-1.00;-1.00;105592;1250;1003662;-72
2023/05/04 06:54:27;;;;;;;17.60;15.90;;;;;;;-128.00;-1.00;-1.00;105820;1249;1004658;-72
2023/05/04 06:56:54;;;;;;;19.40;17.30;;;;;;;-128.00;-1.00;-1.00;105802;1249;1005233;-72
2023/05/04 06:59:20;;;;;;;18.80;16.90;;;;;;;-128.00;-1.00;-1.00;105868;1249;1004865;-71
2023/05/04 07:01:47;;;;;;;16.20;14.30;;;;;;;-128.00;-1.00;-1.00;105836;1249;1003823;-72
2023/05/04 07:04:20;;;;;;;18.60;16.80;;;;;;;-128.00;-1.00;-1.00;105837;1251;1003533;-71
2023/05/04 07:06:46;;;;;;;18.20;16.30;;;;;;;-128.00;-1.00;-1.00;105822;1249;1059972;-71
2023/05/04 07:09:13;;;;;;;20.10;18.00;;;;;;;-128.00;-1.00;-1.00;105775;1250;1004771;-71
2023/05/04 07:11:40;;;;;;;22.20;18.90;;;;;;;-128.00;-1.00;-1.00;105833;1250;1005173;-71
2023/05/04 07:14:06;;;;;;;22.10;19.70;;;;;;;-128.00;-1.00;-1.00;105829;1250;1004186;-72
2023/05/04 07:16:34;;;;;;;24.10;21.70;;;;;;;-128.00;-1.00;-1.00;105862;1250;1005054;-71
2023/05/04 07:19:01;;;;;;;23.80;21.30;;;;;;;-128.00;-1.00;-1.00;105811;1249;1004382;-70
2023/05/04 07:21:27;;;;;;;24.00;21.50;;;;;;;-128.00;-1.00;-1.00;105791;1249;1004031;-72
2023/05/04 07:23:54;;;;;;;25.90;23.30;;;;;;;-128.00;-1.00;-1.00;105652;1250;1003501;-72
2023/05/04 07:26:21;;;;;;;26.50;23.60;;;;;;;-128.00;-1.00;-1.00;105809;1250;1003892;-72
2023/05/04 07:28:48;;;;;;;27.80;24.80;;;;;;;-128.00;-1.00;-1.00;105830;1249;1004290;-72
2023/05/04 07:31:14;;;;;;;24.60;22.10;;;;;;;-128.00;-1.00;-1.00;105790;1249;1003913;-72
2023/05/04 07:33:41;;;;;;;24.20;21.70;;;;;;;-128.00;-1.00;-1.00;105803;1249;1004377;-72
2023/05/04 07:36:08;;;;;;;23.90;21.50;;;;;;;-128.00;-1.00;-1.00;105878;1249;1003851;-71
2023/05/04 07:38:34;;;;;;;28.00;25.20;;;;;;;-128.00;-1.00;-1.00;105823;1249;1003457;-71
2023/05/04 07:41:01;;;;;;;25.40;22.70;;;;;;;-128.00;-1.00;-1.00;105866;1249;1004240;-72
2023/05/04 07:43:27;;;;;;;26.30;23.00;;;;;;;-128.00;-1.00;-1.00;105818;1250;1004763;-71
2023/05/04 07:45:54;;;;;;;29.20;23.60;;;;;;;-128.00;-1.00;-1.00;105824;1249;1004426;-72
2023/05/04 07:48:20;;;;;;;21.80;19.50;;;;;;;-128.00;-1.00;-1.00;105839;1249;1003464;-72
2023/05/04 07:50:47;;;;;;;20.80;18.50;;;;;;;-128.00;-1.00;-1.00;105870;1249;1004260;-71
2023/05/04 07:53:14;;;;;;;22.00;19.70;;;;;;;-128.00;-1.00;-1.00;105879;1249;1003463;-72
2023/05/04 07:55:40;;;;;;;22.90;20.50;;;;;;;-128.00;-1.00;-1.00;105814;1249;1004012;-71
2023/05/04 07:58:08;;;;;;;25.10;22.20;;;;;;;-128.00;-1.00;-1.00;105837;1249;1004240;-72
2023/05/04 08:00:35;;;;;;;24.10;21.30;;;;;;;-128.00;-1.00;-1.00;105843;1249;1003668;-72
2023/05/04 08:03:02;;;;;;;19.80;17.70;;;;;;;-128.00;-1.00;-1.00;105820;1249;1003439;-72
2023/05/04 08:05:29;;;;;;;21.20;17.70;;;;;;;-128.00;-1.00;-1.00;105846;1249;1005299;-71
2023/05/04 08:07:55;;;;;;;21.40;19.30;;;;;;;-128.00;-1.00;-1.00;105828;1249;1005279;-71
2023/05/04 08:10:22;;;;;;;17.50;15.10;;;;;;;-128.00;-1.00;-1.00;105648;1250;1003872;-71
2023/05/04 08:12:48;;;;;;;23.10;18.90;;;;;;;-128.00;-1.00;-1.00;105820;1249;1004270;-72
2023/05/04 08:15:15;;;;;;;19.20;16.80;;;;;;;-128.00;-1.00;-1.00;105824;1249;1003995;-71
2023/05/04 08:17:41;;;;;;;22.30;17.90;;;;;;;-128.00;-1.00;-1.00;105790;1249;1003923;-71
2023/05/04 08:20:09;;;;;;;21.10;17.60;;;;;;;-128.00;-1.00;-1.00;105853;1249;1003451;-72
2023/05/04 08:22:35;;;;;;;13.30;10.40;;;;;;;-128.00;-1.00;-1.00;105809;1249;1004931;-71
2023/05/04 08:25:02;;;;;;;14.40;10.50;;;;;;;-128.00;-1.00;-1.00;105834;1249;1003849;-71
2023/05/04 08:27:28;;;;;;;13.20;11.60;;;;;;;-128.00;-1.00;-1.00;105868;1249;1003512;-71
2023/05/04 08:29:56;;;;;;;16.50;13.20;;;;;;;-128.00;-1.00;-1.00;105858;1249;1004733;-71
2023/05/04 08:32:23;;;;;;;14.70;12.90;;;;;;;-128.00;-1.00;-1.00;105618;1249;1004836;-71
2023/05/04 08:34:50;;;;;;;12.60;10.70;;;;;;;-128.00;-1.00;-1.00;105838;1249;1004350;-71
2023/05/04 08:37:17;;;;;;;13.60;10.30;;;;;;;-128.00;-1.00;-1.00;105850;1249;1005151;-71
2023/05/04 08:39:43;;;;;;;12.10;10.90;;;;;;;-128.00;-1.00;-1.00;105823;1249;1004531;-71
2023/05/04 08:42:10;;;;;;;10.20;9.10;;;;;;;-128.00;-1.00;-1.00;105873;1249;1004248;-71
2023/05/04 08:44:37;;;;;;;13.60;10.00;;;;;;;-128.00;-1.00;-1.00;105821;1249;1004507;-72
2023/05/04 08:47:03;;;;;;;9.70;8.30;;;;;;;-128.00;-1.00;-1.00;105851;1249;1004687;-72
2023/05/04 08:49:30;;;;;;;7.50;6.80;;;;;;;-128.00;-1.00;-1.00;105867;1249;1003951;-71
2023/05/04 08:51:58;;;;;;;9.60;8.30;;;;;;;-128.00;-1.00;-1.00;105835;1249;1004374;-71
2023/05/04 08:54:25;;;;;;;9.90;8.80;;;;;;;-128.00;-1.00;-1.00;105858;1250;1004782;-72
2023/05/04 08:56:53;;;;;;;10.00;9.00;;;;;;;-128.00;-1.00;-1.00;105847;1249;1004190;-71
2023/05/04 08:59:22;;;;;;;11.80;8.50;;;;;;;-128.00;-1.00;-1.00;105826;1249;1043730;-73
2023/05/04 09:01:53;;;;;;;8.70;7.80;;;;;;;-128.00;-1.00;-1.00;105821;1249;1004776;-72
2023/05/04 09:04:21;;;;;;;8.20;7.00;;;;;;;-128.00;-1.00;-1.00;105841;1249;1060255;-72
2023/05/04 09:06:48;;;;;;;9.90;6.60;;;;;;;-128.00;-1.00;-1.00;105825;1250;1004804;-72
2023/05/04 09:09:15;;;;;;;9.20;7.20;;;;;;;-128.00;-1.00;-1.00;105771;1249;1004380;-72
2023/05/04 09:11:43;;;;;;;9.70;7.20;;;;;;;-128.00;-1.00;-1.00;105857;1249;1004205;-72
2023/05/04 09:14:09;;;;;;;9.30;7.30;;;;;;;-128.00;-1.00;-1.00;105867;1249;1003457;-72
2023/05/04 09:16:37;;;;;;;9.60;8.60;;;;;;;-128.00;-1.00;-1.00;105788;1250;1004793;-72
2023/05/04 09:19:16;;;;;;;9.80;8.40;;;;;;;-128.00;-1.00;-1.00;105606;1250;1004090;-71
2023/05/04 09:21:43;;;;;;;8.70;7.00;;;;;;;-128.00;-1.00;-1.00;105736;1250;1059096;-71
2023/05/04 09:24:11;;;;;;;9.70;7.80;;;;;;;-128.00;-1.00;-1.00;105625;1250;1004342;-71
2023/05/04 09:26:38;;;;;;;8.10;7.10;;;;;;;-128.00;-1.00;-1.00;105890;1249;1004118;-72
2023/05/04 09:29:14;;;;;;;6.90;6.20;;;;;;;-128.00;-1.00;-1.00;105855;1249;1004218;-72
2023/05/04 09:31:46;;;;;;;6.10;5.40;;;;;;;-128.00;-1.00;-1.00;105843;1249;1055737;-72
2023/05/04 09:34:13;;;;;;;6.70;6.00;;;;;;;-128.00;-1.00;-1.00;105827;1249;1058934;-72
2023/05/04 09:36:41;;;;;;;7.20;5.70;;;;;;;-128.00;-1.00;-1.00;105838;1249;1004378;-72
2023/05/04 09:39:16;;;;;;;7.90;7.10;;;;;;;-128.00;-1.00;-1.00;105733;1249;1003534;-71
2023/05/04 09:41:43;;;;;;;6.90;6.30;;;;;;;-128.00;-1.00;-1.00;105852;1249;1061580;-72
2023/05/04 09:44:23;;;;;;;6.20;5.60;;;;;;;-128.00;-1.00;-1.00;105765;1251;1004268;-71
2023/05/04 09:46:59;;;;;;;7.30;6.00;;;;;;;-128.00;-1.00;-1.00;105689;1251;1059288;-72
2023/05/04 09:49:33;;;;;;;6.60;5.70;;;;;;;-128.00;-1.00;-1.00;105754;1251;1044357;-72
2023/05/04 09:52:01;;;;;;;6.00;5.20;;;;;;;-128.00;-1.00;-1.00;105715;1251;1046805;-72
2023/05/04 09:54:37;;;;;;;6.20;5.30;;;;;;;-128.00;-1.00;-1.00;105791;1250;1004051;-72
2023/05/04 09:57:14;;;;;;;6.90;5.20;;;;;;;-128.00;-1.00;-1.00;105718;1251;1055157;-72
2023/05/04 09:59:41;;;;;;;6.20;5.60;;;;;;;-128.00;-1.00;-1.00;105827;1251;1060142;-72
2023/05/04 10:02:10;;;;;;;6.90;6.20;;;;;;;-128.00;-1.00;-1.00;105773;1251;1003660;-72
2023/05/04 10:04:38;;;;;;;6.20;5.60;;;;;;;-128.00;-1.00;-1.00;105805;1251;1047078;-72
2023/05/04 10:07:05;;;;;;;6.90;5.10;;;;;;;-128.00;-1.00;-1.00;105777;1251;1004374;-72
2023/05/04 10:09:32;;;;;;;6.20;5.20;;;;;;;-128.00;-1.00;-1.00;105795;1251;1004966;-72
2023/05/04 10:12:01;;;;;;;7.10;5.30;;;;;;;-128.00;-1.00;-1.00;105751;1251;1004588;-72
2023/05/04 10:14:32;;;;;;;6.00;5.20;;;;;;;-128.00;-1.00;-1.00;105724;1251;1044267;-72
2023/05/04 10:17:10;;;;;;;5.90;5.30;;;;;;;-128.00;-1.00;-1.00;105799;1251;1047924;-72
2023/05/04 10:19:39;;;;;;;5.70;4.40;;;;;;;-128.00;-1.00;-1.00;105764;1250;1063047;-72
2023/05/04 10:22:35;;;;;;;7.00;3.60;;;;;;;-128.00;-1.00;-1.00;105798;1251;1056566;-72
2023/05/04 10:25:11;;;;;;;4.10;3.60;;;;;;;-128.00;-1.00;-1.00;105250;1257;1060057;-72
2023/05/04 10:28:00;;;;;;;4.80;3.70;;;;;;;-128.00;-1.00;-1.00;105169;1257;1045452;-72
2023/05/04 10:30:27;;;;;;;5.20;3.60;;;;;;;-128.00;-1.00;-1.00;105286;1257;1046055;-72
2023/05/04 10:32:57;;;;;;;3.90;3.40;;;;;;;-128.00;-1.00;-1.00;105267;1257;1003853;-72
2023/05/04 10:35:24;;;;;;;5.20;3.90;;;;;;;-128.00;-1.00;-1.00;105221;1257;1055591;-71
2023/05/04 10:37:53;;;;;;;3.70;3.40;;;;;;;-128.00;-1.00;-1.00;105295;1257;1004726;-72
2023/05/04 10:40:39;;;;;;;3.90;3.50;;;;;;;-128.00;-1.00;-1.00;105232;1257;1043586;-71
2023/05/04 10:43:07;;;;;;;7.00;3.70;;;;;;;-128.00;-1.00;-1.00;105198;1257;1046964;-71
2023/05/04 10:45:42;;;;;;;4.60;4.20;;;;;;;-128.00;-1.00;-1.00;105214;1257;1004554;-71
2023/05/04 10:48:09;;;;;;;6.60;4.70;;;;;;;-128.00;-1.00;-1.00;105270;1257;1056092;-72
2023/05/04 10:50:42;;;;;;;3.90;3.10;;;;;;;-128.00;-1.00;-1.00;105246;1257;1004338;-71
2023/05/04 10:53:10;;;;;;;4.60;3.50;;;;;;;-128.00;-1.00;-1.00;105109;1257;1046166;-71
2023/05/04 10:55:40;;;;;;;4.30;3.60;;;;;;;-128.00;-1.00;-1.00;105308;1257;1003729;-71
2023/05/04 10:58:09;;;;;;;3.90;3.20;;;;;;;-128.00;-1.00;-1.00;105179;1257;1062995;-71
2023/05/04 11:00:38;;;;;;;4.20;3.60;;;;;;;-128.00;-1.00;-1.00;105216;1257;1056352;-71
2023/05/04 11:03:09;;;;;;;4.40;3.80;;;;;;;-128.00;-1.00;-1.00;105644;1251;1058986;-70
2023/05/04 11:05:53;;;;;;;5.10;3.80;;;;;;;-128.00;-1.00;-1.00;105752;1251;1043923;-71
2023/05/04 11:08:25;;;;;;;4.60;3.60;;;;;;;-128.00;-1.00;-1.00;105789;1251;1048884;-72